createdAt,value
2022-08-19T00:01:28.788Z,20.88
2022-08-19T00:03:58.740Z,18.63
2022-08-19T00:06:25.599Z,17.92
2022-08-19T00:08:52.261Z,17.85
2022-08-19T00:11:25.524Z,18.08
2022-08-19T00:13:52.503Z,19.02
2022-08-19T00:16:25.098Z,19.88
2022-08-19T00:21:19.255Z,16.90
2022-08-19T00:23:45.604Z,19.85
2022-08-19T00:26:12.200Z,18.27
2022-08-19T00:28:38.599Z,17.17
2022-08-19T00:31:05.620Z,18.75
2022-08-19T00:33:34.993Z,16.45
2022-08-19T00:36:01.752Z,16.33
2022-08-19T00:38:37.148Z,16.40
2022-08-19T00:41:05.319Z,15.98
2022-08-19T00:43:31.701Z,17.65
2022-08-19T00:45:58.092Z,20.50
2022-08-19T00:48:24.465Z,15.70
2022-08-19T00:50:53.865Z,15.65
2022-08-19T00:53:22.610Z,15.38
2022-08-19T00:55:51.354Z,17.48
2022-08-19T00:58:19.869Z,15.75
2022-08-19T01:00:47.361Z,17.33
2022-08-19T01:03:15.449Z,18.20
2022-08-19T01:05:42.891Z,18.00
2022-08-19T01:08:09.297Z,17.70
2022-08-19T01:10:41.465Z,19.25
2022-08-19T01:13:08.134Z,18.10
2022-08-19T01:15:36.229Z,16.70
2022-08-19T01:18:05.068Z,18.83
2022-08-19T01:20:31.509Z,17.65
2022-08-19T01:22:58.713Z,19.85
2022-08-19T01:25:27.413Z,19.83
2022-08-19T01:27:56.474Z,20.20
2022-08-19T01:30:34.657Z,17.95
2022-08-19T01:33:01.486Z,18.83
2022-08-19T01:35:29.661Z,19.48
2022-08-19T01:37:58.085Z,21.75
2022-08-19T01:40:26.964Z,19.52
2022-08-19T01:42:54.244Z,20.02
2022-08-19T01:45:21.442Z,20.45
2022-08-19T01:48:01.153Z,18.27
2022-08-19T01:50:28.642Z,21.80
2022-08-19T01:53:02.384Z,19.27
2022-08-19T01:55:32.474Z,18.67
2022-08-19T01:58:00.158Z,20.30
2022-08-19T02:00:28.707Z,18.60
2022-08-19T02:02:55.291Z,18.55
2022-08-19T02:05:22.356Z,21.63
2022-08-19T02:07:48.733Z,19.38
2022-08-19T02:10:18.057Z,18.38
2022-08-19T02:12:44.901Z,18.30
2022-08-19T02:15:11.982Z,19.08
2022-08-19T02:17:38.522Z,18.60
2022-08-19T02:20:05.917Z,19.10
2022-08-19T02:22:32.263Z,19.90
2022-08-19T02:24:58.617Z,22.02
2022-08-19T02:27:25.157Z,20.95
2022-08-19T02:29:51.529Z,19.95
2022-08-19T02:32:20.389Z,19.65
2022-08-19T02:34:50.125Z,19.85
2022-08-19T02:37:35.224Z,24.55
2022-08-19T02:40:02.330Z,23.65
2022-08-19T02:42:29.906Z,24.42
2022-08-19T02:44:56.569Z,23.33
2022-08-19T02:47:22.906Z,23.45
2022-08-19T02:49:50.823Z,26.20
2022-08-19T02:52:17.432Z,27.45
2022-08-19T02:54:44.594Z,28.42
2022-08-19T02:57:11.039Z,27.45
2022-08-19T02:59:37.385Z,27.25
2022-08-19T03:02:03.869Z,30.05
2022-08-19T03:04:30.587Z,28.73
2022-08-19T03:07:02.113Z,29.10
2022-08-19T03:09:37.504Z,26.10
2022-08-19T03:12:04.460Z,27.40
2022-08-19T03:14:34.793Z,26.35
2022-08-19T03:17:01.139Z,24.92
2022-08-19T03:19:28.417Z,25.95
2022-08-19T03:21:56.265Z,25.83
2022-08-19T03:24:22.599Z,23.58
2022-08-19T03:26:58.523Z,22.80
2022-08-19T03:29:30.576Z,23.70
2022-08-19T03:31:57.886Z,23.98
2022-08-19T03:34:27.381Z,25.73
2022-08-19T03:36:55.324Z,25.73
2022-08-19T03:39:21.874Z,26.88
2022-08-19T03:41:50.794Z,26.25
2022-08-19T03:44:38.670Z,26.15
2022-08-19T03:47:06.154Z,29.35
2022-08-19T03:49:34.383Z,29.63
2022-08-19T03:52:05.876Z,28.30
2022-08-19T03:54:32.214Z,27.70
2022-08-19T03:56:58.654Z,30.52
2022-08-19T03:59:27.313Z,28.25
2022-08-19T04:01:58.076Z,28.25
2022-08-19T04:04:24.985Z,29.80
2022-08-19T04:06:55.750Z,28.65
2022-08-19T04:09:22.324Z,27.60
2022-08-19T04:11:49.832Z,24.90
2022-08-19T04:14:18.018Z,28.65
2022-08-19T04:16:45.449Z,27.58
2022-08-19T04:19:12.295Z,27.45
2022-08-19T04:21:38.825Z,24.00
2022-08-19T04:24:05.370Z,23.13
2022-08-19T04:26:33.416Z,22.92
2022-08-19T04:29:00.641Z,21.98
2022-08-19T04:31:28.798Z,22.73
2022-08-19T04:33:57.590Z,20.58
2022-08-19T04:36:25.575Z,23.30
2022-08-19T04:38:54.449Z,21.55
2022-08-19T04:41:39.534Z,21.02
2022-08-19T04:44:06.126Z,24.55
2022-08-19T04:46:40.113Z,23.20
2022-08-19T04:49:18.535Z,21.48
2022-08-19T04:51:46.703Z,21.38
2022-08-19T04:54:13.235Z,24.25
2022-08-19T04:56:40.509Z,24.65
2022-08-19T04:59:07.149Z,25.45
2022-08-19T05:01:34.129Z,25.95
2022-08-19T05:04:05.473Z,23.58
2022-08-19T05:06:34.524Z,23.52
2022-08-19T05:09:01.805Z,24.13
2022-08-19T05:11:29.877Z,22.15
2022-08-19T05:13:56.702Z,20.60
2022-08-19T05:16:23.785Z,21.67
2022-08-19T05:19:08.890Z,20.85
2022-08-19T05:21:54.441Z,22.02
2022-08-19T05:24:21.769Z,22.00
2022-08-19T05:26:49.800Z,21.38
2022-08-19T05:29:18.378Z,22.70
2022-08-19T05:31:45.223Z,21.10
2022-08-19T05:34:18.559Z,23.98
2022-08-19T05:36:46.700Z,22.48
2022-08-19T05:39:14.864Z,23.35
2022-08-19T05:41:45.284Z,19.63
2022-08-19T05:44:11.840Z,21.75
2022-08-19T05:46:38.997Z,22.30
2022-08-19T05:49:06.859Z,20.92
2022-08-19T05:51:35.015Z,20.90
2022-08-19T05:54:02.101Z,20.17
2022-08-19T05:56:28.646Z,20.65
2022-08-19T05:58:55.141Z,19.23
2022-08-19T06:01:21.512Z,21.48
2022-08-19T06:03:48.533Z,20.90
2022-08-19T06:06:16.779Z,19.95
2022-08-19T06:08:50.968Z,17.77
2022-08-19T06:11:19.487Z,20.52
2022-08-19T06:13:48.472Z,17.52
2022-08-19T06:16:21.508Z,19.98
2022-08-19T06:18:47.906Z,19.50
2022-08-19T06:21:14.476Z,17.98
2022-08-19T06:23:41.329Z,19.60
2022-08-19T06:26:12.465Z,19.23
2022-08-19T06:28:43.556Z,18.60
2022-08-19T06:31:10.053Z,17.58
2022-08-19T06:33:36.720Z,15.82
2022-08-19T06:36:03.182Z,15.88
2022-08-19T06:38:29.483Z,15.07
2022-08-19T06:41:07.973Z,18.52
2022-08-19T06:43:34.804Z,15.77
2022-08-19T06:46:02.021Z,14.75
2022-08-19T06:48:28.345Z,14.55
2022-08-19T06:50:55.256Z,14.43
2022-08-19T06:53:21.614Z,12.13
2022-08-19T06:55:58.350Z,12.25
2022-08-19T06:58:24.681Z,12.48
2022-08-19T07:00:52.777Z,13.70
2022-08-19T07:03:19.188Z,12.38
2022-08-19T07:05:46.332Z,11.63
2022-08-19T07:08:13.113Z,11.48
2022-08-19T07:10:43.068Z,14.93
2022-08-19T07:13:09.391Z,12.07
2022-08-19T07:15:37.605Z,10.43
2022-08-19T07:18:06.205Z,11.75
2022-08-19T07:20:33.648Z,11.43
2022-08-19T07:23:01.022Z,10.50
2022-08-19T07:25:32.170Z,9.55
2022-08-19T07:27:59.907Z,7.85
2022-08-19T07:30:29.088Z,10.20
2022-08-19T07:32:57.104Z,9.70
2022-08-19T07:35:24.734Z,8.40
2022-08-19T07:37:51.089Z,8.38
2022-08-19T07:40:17.491Z,8.60
2022-08-19T07:42:44.118Z,7.88
2022-08-19T07:45:10.970Z,8.05
2022-08-19T07:47:49.810Z,8.13
2022-08-19T07:50:20.526Z,7.80
2022-08-19T07:52:48.940Z,7.95
2022-08-19T07:55:42.025Z,9.35
2022-08-19T07:58:03.198Z,8.77
2022-08-19T08:00:31.333Z,9.10
2022-08-19T08:02:57.796Z,9.15
2022-08-19T08:05:44.175Z,8.70
2022-08-19T08:08:30.018Z,8.48
2022-08-19T08:10:57.114Z,8.50
2022-08-19T08:13:24.345Z,8.90
2022-08-19T08:15:50.779Z,9.68
2022-08-19T08:18:19.673Z,9.55
2022-08-19T08:20:46.037Z,9.60
2022-08-19T08:23:26.567Z,10.27
2022-08-19T08:25:55.635Z,9.90
2022-08-19T08:28:22.056Z,10.55
2022-08-19T08:30:50.564Z,12.18
2022-08-19T08:33:28.574Z,12.20
2022-08-19T08:38:27.004Z,10.90
2022-08-19T08:40:59.859Z,14.52
2022-08-19T08:43:32.305Z,12.90
2022-08-19T08:45:58.929Z,13.35
2022-08-19T08:48:34.762Z,13.10
2022-08-19T08:51:02.585Z,14.05
2022-08-19T08:53:34.421Z,14.93
2022-08-19T08:56:02.909Z,13.88
2022-08-19T08:58:32.589Z,14.65
2022-08-19T09:00:58.907Z,14.73
2022-08-19T09:03:31.663Z,14.38
2022-08-19T09:06:01.290Z,12.60
2022-08-19T09:08:27.848Z,11.68
2022-08-19T09:10:55.820Z,12.02
2022-08-19T09:13:23.126Z,12.57
2022-08-19T09:15:53.321Z,11.35
2022-08-19T09:18:19.744Z,11.68
2022-08-19T09:20:48.254Z,11.48
2022-08-19T09:23:14.661Z,13.25
2022-08-19T09:25:41.067Z,12.38
2022-08-19T09:28:21.954Z,11.63
2022-08-19T09:30:49.289Z,11.45
2022-08-19T09:33:17.005Z,10.90
2022-08-19T09:35:50.030Z,11.05
2022-08-19T09:38:20.341Z,8.52
2022-08-19T09:40:47.410Z,10.23
2022-08-19T09:43:13.754Z,9.90
2022-08-19T09:45:40.190Z,10.27
2022-08-19T09:48:07.062Z,10.20
2022-08-19T09:50:35.007Z,8.90
2022-08-19T09:53:01.438Z,9.60
2022-08-19T09:55:31.071Z,9.13
2022-08-19T09:57:59.058Z,10.93
2022-08-19T10:00:25.408Z,11.43
2022-08-19T10:02:51.742Z,10.80
2022-08-19T10:05:38.377Z,10.27
2022-08-19T10:08:13.578Z,11.20
2022-08-19T10:10:43.272Z,12.27
2022-08-19T10:13:09.661Z,13.43
2022-08-19T10:15:47.127Z,12.40
2022-08-19T10:18:15.380Z,13.50
2022-08-19T10:20:42.710Z,13.73
2022-08-19T10:23:09.964Z,13.43
2022-08-19T10:25:36.876Z,11.70
2022-08-19T10:28:06.925Z,12.27
2022-08-19T10:30:37.660Z,15.02
2022-08-19T10:33:08.498Z,15.00
2022-08-19T10:35:42.752Z,14.00
2022-08-19T10:38:29.303Z,14.15
2022-08-19T10:40:58.601Z,13.02
2022-08-19T10:43:25.831Z,12.95
2022-08-19T10:46:00.113Z,13.15
2022-08-19T10:48:26.810Z,14.02
2022-08-19T10:51:12.352Z,14.52
2022-08-19T10:53:49.351Z,14.55
2022-08-19T10:56:34.481Z,14.10
2022-08-19T10:59:01.181Z,14.18
2022-08-19T11:01:27.823Z,12.68
2022-08-19T11:03:54.248Z,12.45
2022-08-19T11:06:21.442Z,10.93
2022-08-19T11:08:47.810Z,11.07
2022-08-19T11:11:14.170Z,11.48
2022-08-19T11:13:41.593Z,10.63
2022-08-19T11:16:09.690Z,10.75
2022-08-19T11:18:37.330Z,11.25
2022-08-19T11:21:08.067Z,11.20
2022-08-19T11:23:34.626Z,9.95
2022-08-19T11:26:02.031Z,9.32
2022-08-19T11:28:29.010Z,9.30
2022-08-19T11:30:55.347Z,9.30
2022-08-19T11:33:21.671Z,10.93
2022-08-19T11:35:48.001Z,8.70
2022-08-19T11:38:15.662Z,7.20
2022-08-19T11:40:43.108Z,6.85
2022-08-19T11:43:10.358Z,7.30
2022-08-19T11:45:36.828Z,6.22
2022-08-19T11:48:03.430Z,5.20
2022-08-19T11:50:29.841Z,5.78
2022-08-19T11:52:57.229Z,5.13
2022-08-19T11:55:24.417Z,6.15
2022-08-19T11:57:50.807Z,8.00
2022-08-19T12:00:17.190Z,7.28
2022-08-19T12:02:43.653Z,5.70
2022-08-19T12:05:12.973Z,6.18
2022-08-19T12:07:40.554Z,6.30
2022-08-19T12:10:07.283Z,5.93
2022-08-19T12:12:34.810Z,5.78
2022-08-19T12:15:01.245Z,6.20
2022-08-19T12:17:27.990Z,6.90
2022-08-19T12:19:54.926Z,5.78
2022-08-19T12:22:22.229Z,6.13
2022-08-19T12:24:51.024Z,7.53
2022-08-19T12:27:32.012Z,6.25
2022-08-19T12:30:04.912Z,5.15
2022-08-19T12:32:31.280Z,6.03
2022-08-19T12:34:57.600Z,6.35
2022-08-19T12:37:23.974Z,5.25
2022-08-19T12:39:50.295Z,4.57
2022-08-19T12:42:16.676Z,5.80
2022-08-19T12:44:43.800Z,3.80
2022-08-19T12:47:12.714Z,5.18
2022-08-19T12:49:53.068Z,5.07
2022-08-19T12:52:23.496Z,4.80
2022-08-19T12:54:54.040Z,5.00
2022-08-19T12:57:21.473Z,5.25
2022-08-19T12:59:52.620Z,4.60
2022-08-19T13:02:19.011Z,4.60
2022-08-19T13:04:45.600Z,5.68
2022-08-19T13:07:12.061Z,7.45
2022-08-19T13:09:38.594Z,4.95
2022-08-19T13:12:08.109Z,4.88
2022-08-19T13:14:35.876Z,5.47
2022-08-19T13:17:03.323Z,4.95
2022-08-19T13:19:31.181Z,5.22
2022-08-19T13:22:00.316Z,6.18
2022-08-19T13:24:27.673Z,4.53
2022-08-19T13:27:03.262Z,4.50
2022-08-19T13:29:48.447Z,4.30
2022-08-19T13:32:33.169Z,3.95
2022-08-19T13:34:59.513Z,5.72
2022-08-19T13:37:44.390Z,6.20
2022-08-19T13:40:19.837Z,5.50
2022-08-19T13:42:47.261Z,4.13
2022-08-19T13:45:15.103Z,4.40
2022-08-19T13:47:43.478Z,5.45
2022-08-19T13:50:11.837Z,6.18
2022-08-19T13:52:39.194Z,7.95
2022-08-19T13:55:06.236Z,5.93
2022-08-19T13:57:32.974Z,4.95
2022-08-19T13:59:59.424Z,4.30
2022-08-19T14:02:26.024Z,5.43
2022-08-19T14:04:52.380Z,4.50
2022-08-19T14:07:18.746Z,4.75
2022-08-19T14:09:45.109Z,6.10
2022-08-19T14:12:13.920Z,5.85
2022-08-19T14:14:40.317Z,6.00
2022-08-19T14:17:07.417Z,5.85
2022-08-19T14:19:34.141Z,4.50
2022-08-19T14:22:00.537Z,5.90
2022-08-19T14:24:27.098Z,5.82
2022-08-19T14:26:54.677Z,5.95
2022-08-19T14:29:20.979Z,5.90
2022-08-19T14:31:47.290Z,5.20
2022-08-19T14:34:13.688Z,5.22
2022-08-19T14:36:40.061Z,4.88
2022-08-19T14:39:06.520Z,10.73
2022-08-19T14:41:33.593Z,4.57
2022-08-19T14:44:01.288Z,4.25
2022-08-19T14:46:29.599Z,7.72
2022-08-19T14:48:57.299Z,4.20
2022-08-19T14:51:27.605Z,5.55
2022-08-19T14:53:53.976Z,5.15
2022-08-19T14:56:22.024Z,4.40
2022-08-19T14:58:48.779Z,5.05
2022-08-19T15:01:15.195Z,5.03
2022-08-19T15:03:42.084Z,6.28
2022-08-19T15:06:09.179Z,6.85
2022-08-19T15:08:39.931Z,4.30
2022-08-19T15:11:10.839Z,4.05
2022-08-19T15:13:37.200Z,4.20
2022-08-19T15:16:03.664Z,5.45
2022-08-19T15:18:30.054Z,4.20
2022-08-19T15:20:57.739Z,5.15
2022-08-19T15:23:25.231Z,3.90
2022-08-19T15:25:55.752Z,3.72
2022-08-19T15:28:23.781Z,4.72
2022-08-19T15:30:51.480Z,3.85
2022-08-19T15:33:20.437Z,4.82
2022-08-19T15:35:48.018Z,6.60
2022-08-19T15:38:16.023Z,5.50
2022-08-19T15:40:42.482Z,6.25
2022-08-19T15:43:08.816Z,6.22
2022-08-19T15:45:35.192Z,5.10
2022-08-19T15:48:02.349Z,4.88
2022-08-19T15:50:29.741Z,5.32
2022-08-19T15:52:57.636Z,5.63
2022-08-19T15:55:32.638Z,4.93
2022-08-19T15:58:29.756Z,5.15
2022-08-19T16:01:16.094Z,5.47
2022-08-19T16:04:01.257Z,6.10
2022-08-19T16:06:27.833Z,6.07
2022-08-19T16:08:55.434Z,7.15
2022-08-19T16:11:23.418Z,10.38
2022-08-19T16:13:51.772Z,7.18
2022-08-19T16:16:19.057Z,7.30
2022-08-19T16:18:47.385Z,7.07
2022-08-19T16:21:17.306Z,6.65
2022-08-19T16:23:47.572Z,8.27
2022-08-19T16:26:15.285Z,6.63
2022-08-19T16:28:42.178Z,7.40
2022-08-19T16:31:09.008Z,7.10
2022-08-19T16:33:35.386Z,6.10
2022-08-19T16:36:07.710Z,6.10
2022-08-19T16:38:35.474Z,6.03
2022-08-19T16:41:01.829Z,5.38
2022-08-19T16:43:30.402Z,5.43
2022-08-19T16:45:57.734Z,6.05
2022-08-19T16:48:26.934Z,5.10
2022-08-19T16:50:53.320Z,5.80
2022-08-19T16:53:21.281Z,5.45
2022-08-19T16:55:53.208Z,5.55
2022-08-19T16:58:28.386Z,6.20
2022-08-19T17:00:57.816Z,7.45
2022-08-19T17:03:35.712Z,5.25
2022-08-19T17:06:03.689Z,5.47
2022-08-19T17:08:31.020Z,5.95
2022-08-19T17:11:17.095Z,5.88
2022-08-19T17:13:44.726Z,7.35
2022-08-19T17:16:14.173Z,7.10
2022-08-19T17:18:40.547Z,7.10
2022-08-19T17:21:06.913Z,7.55
2022-08-19T17:23:43.126Z,7.40
2022-08-19T17:26:17.070Z,7.68
2022-08-19T17:28:45.164Z,7.38
2022-08-19T17:31:11.581Z,8.32
2022-08-19T17:33:41.299Z,8.88
2022-08-19T17:36:08.335Z,6.72
2022-08-19T17:38:35.742Z,9.73
2022-08-19T17:41:05.878Z,8.55
2022-08-19T17:43:40.005Z,8.15
2022-08-19T17:46:11.014Z,6.43
2022-08-19T17:48:40.718Z,6.50
2022-08-19T17:51:14.538Z,6.60
2022-08-19T17:53:41.069Z,6.18
2022-08-19T17:56:07.761Z,6.18
2022-08-19T17:58:34.588Z,8.05
2022-08-19T18:01:02.621Z,6.75
2022-08-19T18:03:30.199Z,7.22
2022-08-19T18:05:57.077Z,6.55
2022-08-19T18:08:23.753Z,9.18
2022-08-19T18:10:50.110Z,6.70
2022-08-19T18:13:17.077Z,7.47
2022-08-19T18:15:44.378Z,6.88
2022-08-19T18:18:14.908Z,8.43
2022-08-19T18:20:42.435Z,10.02
2022-08-19T18:23:45.045Z,7.10
2022-08-19T18:25:55.610Z,7.20
2022-08-19T18:28:23.686Z,7.70
2022-08-19T18:30:50.032Z,6.93
2022-08-19T18:33:16.472Z,7.07
2022-08-19T18:35:45.941Z,7.25
2022-08-19T18:38:35.010Z,6.80
2022-08-19T18:41:20.150Z,7.07
2022-08-19T18:44:05.156Z,8.50
2022-08-19T18:46:50.214Z,6.55
2022-08-19T18:49:23.050Z,7.43
2022-08-19T18:51:51.054Z,8.02
2022-08-19T18:54:17.869Z,7.68
2022-08-19T18:56:44.815Z,7.18
2022-08-19T18:59:14.693Z,10.73
2022-08-19T19:01:48.057Z,9.02
2022-08-19T19:04:14.412Z,7.35
2022-08-19T19:06:42.437Z,7.57
2022-08-19T19:09:09.836Z,8.02
2022-08-19T19:11:39.353Z,7.70
2022-08-19T19:14:18.988Z,7.85
2022-08-19T19:16:53.953Z,7.80
2022-08-19T19:19:20.424Z,11.25
2022-08-19T19:21:50.526Z,9.88
2022-08-19T19:24:20.417Z,9.68
2022-08-19T19:26:47.607Z,8.60
2022-08-19T19:29:14.035Z,8.00
2022-08-19T19:31:40.557Z,9.27
2022-08-19T19:34:06.965Z,10.20
2022-08-19T19:36:53.394Z,10.30
2022-08-19T19:39:34.067Z,8.05
2022-08-19T19:42:12.463Z,8.13
2022-08-19T19:44:40.925Z,8.40
2022-08-19T19:47:15.238Z,8.75
2022-08-19T19:50:03.782Z,11.30
2022-08-19T19:52:28.181Z,10.75
2022-08-19T19:54:56.596Z,9.43
2022-08-19T19:57:26.445Z,8.95
2022-08-19T19:59:54.024Z,9.20
2022-08-19T20:02:21.856Z,11.32
2022-08-19T20:04:48.734Z,8.73
2022-08-19T20:07:15.078Z,8.90
2022-08-19T20:09:58.773Z,9.18
2022-08-19T20:14:52.192Z,12.88
2022-08-19T20:17:20.355Z,8.13
2022-08-19T20:19:47.854Z,7.63
2022-08-19T20:22:14.428Z,11.60
2022-08-19T20:24:42.383Z,12.40
2022-08-19T20:27:09.123Z,8.45
2022-08-19T20:29:38.837Z,6.78
2022-08-19T20:32:07.109Z,9.07
2022-08-19T20:34:33.790Z,6.28
2022-08-19T20:37:00.144Z,8.55
2022-08-19T20:39:26.519Z,8.55
2022-08-19T20:41:52.898Z,6.18
2022-08-19T20:44:20.302Z,6.60
2022-08-19T20:46:54.788Z,7.28
2022-08-19T20:49:23.099Z,7.13
2022-08-19T20:51:54.442Z,8.00
2022-08-19T20:54:20.857Z,7.47
2022-08-19T20:56:47.224Z,9.30
2022-08-19T20:59:13.568Z,7.53
2022-08-19T21:01:39.917Z,6.43
2022-08-19T21:04:06.337Z,9.05
2022-08-19T21:06:32.677Z,8.63
2022-08-19T21:08:59.021Z,5.68
2022-08-19T21:11:25.348Z,7.35
2022-08-19T21:13:51.699Z,7.90
2022-08-19T21:16:18.039Z,7.32
2022-08-19T21:18:44.565Z,6.20
2022-08-19T21:21:10.967Z,5.82
2022-08-19T21:23:37.330Z,10.32
2022-08-19T21:26:03.670Z,5.20
2022-08-19T21:28:36.061Z,6.05
2022-08-19T21:31:03.566Z,5.28
2022-08-19T21:33:32.807Z,6.82
2022-08-19T21:35:59.880Z,6.15
2022-08-19T21:38:26.391Z,7.13
2022-08-19T21:40:52.830Z,10.93
2022-08-19T21:43:19.292Z,10.13
2022-08-19T21:45:46.769Z,5.80
2022-08-19T21:48:14.572Z,5.18
2022-08-19T21:50:41.775Z,5.80
2022-08-19T21:53:08.276Z,8.43
2022-08-19T21:55:38.499Z,6.93
2022-08-19T21:58:04.881Z,6.13
2022-08-19T22:00:32.128Z,6.40
2022-08-19T22:02:58.730Z,6.25
2022-08-19T22:05:25.614Z,5.55
2022-08-19T22:07:59.396Z,4.03
2022-08-19T22:10:32.126Z,8.13
2022-08-19T22:12:58.580Z,7.18
2022-08-19T22:15:27.115Z,6.45
2022-08-19T22:17:54.325Z,5.30
2022-08-19T22:20:23.541Z,4.10
2022-08-19T22:22:51.345Z,5.88
2022-08-19T22:25:30.048Z,6.32
2022-08-19T22:28:00.499Z,8.23
2022-08-19T22:30:27.285Z,6.28
2022-08-19T22:33:01.568Z,4.15
2022-08-19T22:35:31.232Z,7.75
2022-08-19T22:37:58.814Z,4.90
2022-08-19T22:40:26.205Z,4.82
2022-08-19T22:43:14.890Z,5.97
2022-08-19T22:45:41.476Z,3.83
2022-08-19T22:48:09.181Z,4.63
2022-08-19T22:50:36.232Z,5.25
2022-08-19T22:53:03.100Z,6.13
2022-08-19T22:55:30.474Z,6.13
2022-08-19T22:57:57.578Z,4.47
2022-08-19T23:00:26.367Z,8.57
2022-08-19T23:02:53.287Z,3.67
2022-08-19T23:05:21.864Z,5.63
2022-08-19T23:07:50.119Z,5.00
2022-08-19T23:10:27.613Z,4.13
2022-08-19T23:12:56.226Z,5.57
2022-08-19T23:15:24.184Z,4.90
2022-08-19T23:17:50.817Z,5.78
2022-08-19T23:20:17.437Z,4.53
2022-08-19T23:22:46.025Z,4.43
2022-08-19T23:25:14.141Z,4.95
2022-08-19T23:27:59.307Z,3.63
2022-08-19T23:30:25.868Z,4.25
2022-08-19T23:32:53.113Z,4.80
2022-08-19T23:35:19.716Z,5.03
2022-08-19T23:37:46.060Z,9.85
2022-08-19T23:40:12.515Z,6.38
2022-08-19T23:42:42.498Z,4.97
2022-08-19T23:45:09.201Z,4.82
2022-08-19T23:47:35.801Z,4.85
2022-08-19T23:50:07.497Z,7.90
2022-08-19T23:52:35.314Z,4.68
2022-08-19T23:55:02.294Z,8.80
2022-08-19T23:57:28.781Z,4.43
2022-08-19T23:59:55.100Z,6.53
